Time;durP1;ratioP1;P1;durP2;ratioP2;P2;SDS_P1;SDS_P2;PMS_P1;PMS_P2;Temp;Humidity;BMP_temperature;BMP_pressure;BME280_temperature;BME280_humidity;BME280_pressure;Samples;Min_cycle;Max_cycle;Signal;HPM_P1;HPM_P2
2022/11/24 00:01:02;;;;;;;;;;;;;;;5.68;83.21;97132.94;5077534;28;19974;-63
2022/11/24 00:03:30;;;;;;;;;;;;;;;5.65;83.20;97130.88;5075103;28;20023;-63
2022/11/24 00:06:02;;;;;;;;;;;;;;;5.60;82.99;97136.34;5086743;28;19928;-63
2022/11/24 00:08:31;;;;;;;;;;;;;;;5.62;83.11;97139.53;5091457;28;19939;-63
2022/11/24 00:11:25;;;;;;;;;;;;;;;5.59;83.86;97139.31;5086615;28;19928;-63
2022/11/24 00:13:53;;;;;;;;;;;;;;;5.58;83.68;97143.13;5090638;28;19931;-63
2022/11/24 00:16:22;;;;;;;;;;;;;;;5.66;83.76;97150.53;5087437;28;19931;-68
2022/11/24 00:18:53;;;;;;;;;;;;;;;5.66;83.81;97151.31;5089380;28;19924;-64
2022/11/24 00:21:47;;;;;;;;;;;;;;;5.72;83.32;97154.72;5086219;28;20328;-63
2022/11/24 00:24:17;;;;;;;;;;;;;;;5.69;83.53;97156.09;5069658;28;19925;-63
2022/11/24 00:26:45;;;;;;;;;;;;;;;5.64;83.69;97160.78;5077390;28;20084;-63
2022/11/24 00:29:13;;;;;;;;;;;;;;;5.64;84.30;97169.66;5082162;28;20360;-63
2022/11/24 00:31:42;;;;;;;;;;;;;;;5.71;83.74;97161.22;5081811;28;20172;-62
2022/11/24 00:34:35;;;;;;;;;;;;;;;5.68;83.98;97176.06;5088398;28;19928;-63
2022/11/24 00:37:04;;;;;;;;;;;;;;;5.70;83.90;97173.06;5090953;28;19947;-64
2022/11/24 00:39:33;;;;;;;;;;;;;;;5.72;84.10;97182.47;5095903;28;19928;-62
2022/11/24 00:42:02;;;;;;;;;;;;;;;5.75;84.35;97195.34;5087670;28;19959;-63
2022/11/24 00:44:30;;;;;;;;;;;;;;;5.73;84.34;97189.44;5082559;28;20282;-62
2022/11/24 00:46:59;;;;;;;;;;;;;;;5.84;84.18;97200.03;5081156;28;19925;-62
2022/11/24 00:49:27;;;;;;;;;;;;;;;5.80;84.53;97199.84;5087158;28;19924;-64
2022/11/24 00:51:55;;;;;;;;;;;;;;;5.81;84.48;97206.84;5084115;28;19924;-63
2022/11/24 00:54:23;;;;;;;;;;;;;;;5.90;84.36;97205.03;5085279;28;19932;-63
2022/11/24 00:56:53;;;;;;;;;;;;;;;5.94;84.14;97216.06;5089123;28;20369;-62
2022/11/24 00:59:21;;;;;;;;;;;;;;;5.93;84.15;97203.69;5069174;28;19978;-69
2022/11/24 01:02:12;;;;;;;;;;;;;;;5.96;84.58;97211.97;5071650;28;19931;-62
2022/11/24 01:04:40;;;;;;;;;;;;;;;6.00;84.35;97212.19;5074364;28;19928;-63
2022/11/24 01:07:35;;;;;;;;;;;;;;;5.98;84.29;97220.56;5080133;28;19924;-65
2022/11/24 01:10:04;;;;;;;;;;;;;;;6.05;84.11;97217.47;5080405;28;19929;-63
2022/11/24 01:12:34;;;;;;;;;;;;;;;6.01;84.51;97216.47;5053135;28;19924;-63
2022/11/24 01:15:02;;;;;;;;;;;;;;;6.01;84.56;97219.16;5052854;28;20296;-62
2022/11/24 01:17:31;;;;;;;;;;;;;;;6.01;84.93;97232.66;5052850;28;19947;-62
2022/11/24 01:20:49;;;;;;;;;;;;;;;6.08;84.87;97227.69;5078857;28;20207;-63
2022/11/24 01:23:17;;;;;;;;;;;;;;;6.03;85.37;97228.56;5076890;28;19932;-63
2022/11/24 01:25:45;;;;;;;;;;;;;;;6.14;85.04;97229.16;5088180;28;19935;-63
2022/11/24 01:28:14;;;;;;;;;;;;;;;6.22;84.57;97238.44;5091272;28;19947;-62
2022/11/24 01:30:42;;;;;;;;;;;;;;;6.28;84.55;97232.69;5089002;28;19924;-64
2022/11/24 01:33:37;;;;;;;;;;;;;;;6.30;84.61;97240.47;5078382;28;19925;-63
2022/11/24 01:36:06;;;;;;;;;;;;;;;6.32;84.46;97237.47;5076893;28;19924;-63
2022/11/24 01:38:36;;;;;;;;;;;;;;;6.30;84.55;97245.88;5084494;28;19928;-63
2022/11/24 01:41:06;;;;;;;;;;;;;;;6.36;84.45;97255.44;5077303;28;19928;-63
2022/11/24 01:43:35;;;;;;;;;;;;;;;6.38;84.46;97257.84;5078055;28;19932;-63
2022/11/24 01:46:04;;;;;;;;;;;;;;;6.39;84.76;97256.72;5064590;28;19950;-62
2022/11/24 01:48:32;;;;;;;;;;;;;;;6.36;84.62;97252.75;5058463;28;19932;-62
2022/11/24 01:51:03;;;;;;;;;;;;;;;6.42;84.40;97264.25;5067035;28;20377;-62
2022/11/24 01:53:31;;;;;;;;;;;;;;;6.39;84.65;97267.53;5090991;28;19924;-63
2022/11/24 01:56:00;;;;;;;;;;;;;;;6.40;84.64;97267.25;5076323;28;19936;-63
2022/11/24 01:58:28;;;;;;;;;;;;;;;6.36;84.90;97265.44;5071896;28;19928;-63
2022/11/24 02:00:58;;;;;;;;;;;;;;;6.33;84.75;97258.72;5084224;28;19977;-63
2022/11/24 02:03:27;;;;;;;;;;;;;;;6.36;85.05;97268.94;5076449;28;20429;-63
2022/11/24 02:05:56;;;;;;;;;;;;;;;6.35;85.05;97277.34;5080937;28;19924;-63
2022/11/24 02:08:25;;;;;;;;;;;;;;;6.35;85.34;97275.44;5074706;28;19924;-67
2022/11/24 02:10:53;;;;;;;;;;;;;;;6.38;85.30;97279.44;5085310;28;20035;-63
2022/11/24 02:13:22;;;;;;;;;;;;;;;6.39;85.07;97279.16;5082098;28;19946;-64
2022/11/24 02:15:50;;;;;;;;;;;;;;;6.38;85.19;97285.63;5073335;28;19924;-64
2022/11/24 02:18:20;;;;;;;;;;;;;;;6.41;85.23;97281.53;5081176;28;19993;-63
2022/11/24 02:20:48;;;;;;;;;;;;;;;6.38;85.11;97290.22;5063682;28;19931;-63
2022/11/24 02:23:17;;;;;;;;;;;;;;;6.40;85.16;97288.03;5073019;28;19924;-65
2022/11/24 02:25:48;;;;;;;;;;;;;;;6.41;84.97;97289.63;5080802;28;19928;-64
2022/11/24 02:28:17;;;;;;;;;;;;;;;6.38;84.94;97274.81;5094203;28;20331;-63
2022/11/24 02:30:46;;;;;;;;;;;;;;;6.39;85.12;97294.50;5080573;28;19924;-63
2022/11/24 02:33:39;;;;;;;;;;;;;;;6.39;85.30;97289.13;5089166;28;19950;-64
2022/11/24 02:36:07;;;;;;;;;;;;;;;6.41;85.43;97295.03;5078962;28;19924;-63
2022/11/24 02:38:36;;;;;;;;;;;;;;;6.43;84.97;97295.50;5080333;28;19924;-63
2022/11/24 02:41:06;;;;;;;;;;;;;;;6.42;84.85;97296.63;5084916;28;19928;-63
2022/11/24 02:43:42;;;;;;;;;;;;;;;6.45;85.03;97298.72;5089786;28;20356;-63
2022/11/24 02:46:10;;;;;;;;;;;;;;;6.40;84.65;97301.53;5092144;28;19977;-63
2022/11/24 02:48:38;;;;;;;;;;;;;;;6.35;84.96;97293.53;5091017;28;19950;-63
2022/11/24 02:51:06;;;;;;;;;;;;;;;6.36;85.25;97295.13;5065037;28;20289;-63
2022/11/24 02:53:35;;;;;;;;;;;;;;;6.38;85.19;97295.63;5095468;28;19934;-63
2022/11/24 02:56:03;;;;;;;;;;;;;;;6.39;85.25;97302.59;5079798;28;19947;-63
2022/11/24 02:58:32;;;;;;;;;;;;;;;6.43;85.20;97300.91;5056705;28;19940;-63
2022/11/24 03:01:01;;;;;;;;;;;;;;;6.49;85.13;97307.81;5064521;28;19928;-65
2022/11/24 03:03:54;;;;;;;;;;;;;;;6.48;84.82;97311.59;5079006;28;19931;-63
2022/11/24 03:06:23;;;;;;;;;;;;;;;6.46;85.21;97311.13;5081736;28;19987;-64
2022/11/24 03:09:16;;;;;;;;;;;;;;;6.47;85.58;97320.81;5082805;28;19924;-63
2022/11/24 03:11:45;;;;;;;;;;;;;;;6.51;85.25;97327.22;5074915;28;19928;-65
2022/11/24 03:14:14;;;;;;;;;;;;;;;6.57;85.08;97315.22;5088781;28;20399;-63
2022/11/24 03:16:44;;;;;;;;;;;;;;;6.59;84.74;97318.41;5100207;28;20324;-64
2022/11/24 03:19:13;;;;;;;;;;;;;;;6.59;84.98;97320.31;5090532;28;19923;-63
2022/11/24 03:21:41;;;;;;;;;;;;;;;6.62;84.61;97322.41;5072475;28;19925;-64
2022/11/24 03:24:09;;;;;;;;;;;;;;;6.60;84.79;97328.09;5060844;28;20023;-68
2022/11/24 03:26:38;;;;;;;;;;;;;;;6.61;84.86;97332.41;5073171;28;19924;-63
2022/11/24 03:29:06;;;;;;;;;;;;;;;6.66;84.93;97334.19;5066251;28;19928;-63
2022/11/24 03:31:34;;;;;;;;;;;;;;;6.64;84.79;97331.81;5062750;28;19924;-63
2022/11/24 03:34:07;;;;;;;;;;;;;;;6.66;84.68;97335.03;5091281;28;20396;-63
2022/11/24 03:37:00;;;;;;;;;;;;;;;6.69;84.66;97339.81;5092448;28;20480;-63
2022/11/24 03:39:28;;;;;;;;;;;;;;;6.68;84.78;97338.22;5072623;28;19978;-63
2022/11/24 03:41:57;;;;;;;;;;;;;;;6.65;84.91;97341.50;5088080;28;19924;-64
2022/11/24 03:44:25;;;;;;;;;;;;;;;6.64;85.00;97342.59;5070017;28;20377;-63
2022/11/24 03:46:53;;;;;;;;;;;;;;;6.69;84.82;97349.81;5085139;28;19931;-65
2022/11/24 03:49:23;;;;;;;;;;;;;;;6.71;84.31;97348.41;5073750;28;19928;-64
2022/11/24 03:51:51;;;;;;;;;;;;;;;6.71;84.56;97348.41;5087428;28;19930;-64
2022/11/24 03:54:20;;;;;;;;;;;;;;;6.70;84.67;97349.50;5092472;28;20551;-63
2022/11/24 03:56:48;;;;;;;;;;;;;;;6.72;84.45;97355.41;5082806;28;19932;-63
2022/11/24 03:59:19;;;;;;;;;;;;;;;6.71;84.88;97350.28;5076945;28;19932;-63
2022/11/24 04:01:48;;;;;;;;;;;;;;;6.77;84.52;97352.63;5073841;28;20336;-63
2022/11/24 04:04:16;;;;;;;;;;;;;;;6.74;84.74;97353.22;5084111;28;20033;-64
2022/11/24 04:06:45;;;;;;;;;;;;;;;6.79;84.55;97361.22;5088763;28;19924;-63
2022/11/24 04:09:13;;;;;;;;;;;;;;;6.79;84.40;97355.81;5079841;28;19925;-64
2022/11/24 04:15:18;;;;;;;;;;;;;;;6.83;84.05;97372.22;5079994;28;19932;-64
2022/11/24 04:17:51;;;;;;;;;;;;;;;6.86;84.21;97377.00;5081529;28;19951;-64
2022/11/24 04:20:19;;;;;;;;;;;;;;;6.89;84.13;97370.22;5085236;28;19932;-63
2022/11/24 04:22:51;;;;;;;;;;;;;;;6.92;83.68;97377.69;5079734;28;20297;-63
2022/11/24 04:25:19;;;;;;;;;;;;;;;6.95;83.65;97379.81;5089085;28;19963;-63
2022/11/24 04:27:51;;;;;;;;;;;;;;;6.92;83.95;97385.81;5076408;28;19930;-63
2022/11/24 04:30:19;;;;;;;;;;;;;;;6.89;84.11;97387.22;5076451;28;19935;-63
2022/11/24 04:32:48;;;;;;;;;;;;;;;6.91;83.78;97385.00;5089258;28;20336;-64
2022/11/24 04:35:16;;;;;;;;;;;;;;;6.97;83.70;97399.22;5075117;28;19925;-64
2022/11/24 04:37:45;;;;;;;;;;;;;;;6.97;83.93;97396.50;5074006;28;19924;-65
2022/11/24 04:40:37;;;;;;;;;;;;;;;7.00;83.79;97395.91;5076969;28;19928;-63
2022/11/24 04:43:07;;;;;;;;;;;;;;;7.03;83.68;97401.53;5087039;28;19928;-64
2022/11/24 04:45:37;;;;;;;;;;;;;;;7.05;83.66;97403.91;5084268;28;19931;-64
2022/11/24 04:48:05;;;;;;;;;;;;;;;7.04;83.63;97410.44;5091007;28;19927;-64
2022/11/24 04:50:33;;;;;;;;;;;;;;;7.01;83.91;97411.81;5095455;28;20385;-64
2022/11/24 04:53:01;;;;;;;;;;;;;;;7.04;83.90;97422.03;5077665;28;19925;-65
2022/11/24 04:55:29;;;;;;;;;;;;;;;7.04;83.98;97421.22;5080606;28;20297;-63
2022/11/24 04:57:57;;;;;;;;;;;;;;;7.03;83.93;97416.91;5089142;28;20328;-64
2022/11/24 05:00:26;;;;;;;;;;;;;;;7.02;83.67;97421.50;5095572;28;19931;-63
2022/11/24 05:02:55;;;;;;;;;;;;;;;6.99;83.94;97434.84;5080500;28;19931;-63
2022/11/24 05:05:26;;;;;;;;;;;;;;;6.99;84.28;97435.63;5089390;28;19932;-63
2022/11/24 05:07:54;;;;;;;;;;;;;;;6.99;84.49;97437.53;5091298;28;19925;-63
2022/11/24 05:10:35;;;;;;;;;;;;;;;7.00;84.51;97441.84;5082447;28;19928;-65
2022/11/24 05:13:05;;;;;;;;;;;;;;;7.00;84.85;97433.72;5096514;28;19947;-64
2022/11/24 05:15:43;;;;;;;;;;;;;;;7.01;84.71;97449.63;5091541;28;20355;-63
2022/11/24 05:18:19;;;;;;;;;;;;;;;7.06;84.53;97451.44;5085197;28;20392;-63
2022/11/24 05:20:48;;;;;;;;;;;;;;;7.08;84.45;97446.53;5082981;28;20293;-64
2022/11/24 05:23:17;;;;;;;;;;;;;;;7.11;84.20;97454.03;5090626;28;19930;-63
2022/11/24 05:25:45;;;;;;;;;;;;;;;7.10;84.38;97457.84;5091075;28;19928;-66
2022/11/24 05:28:15;;;;;;;;;;;;;;;7.11;84.12;97454.03;5091832;28;19939;-66
2022/11/24 05:30:44;;;;;;;;;;;;;;;7.08;84.17;97466.25;5081510;28;20374;-64
2022/11/24 05:33:14;;;;;;;;;;;;;;;7.07;84.24;97470.03;5090196;28;19963;-63
2022/11/24 05:36:07;;;;;;;;;;;;;;;7.06;84.08;97463.03;5088838;28;19932;-69
2022/11/24 05:38:36;;;;;;;;;;;;;;;7.06;84.00;97467.63;5095415;28;19928;-63
2022/11/24 05:41:05;;;;;;;;;;;;;;;7.07;84.07;97471.94;5094666;28;19970;-65
2022/11/24 05:43:33;;;;;;;;;;;;;;;7.07;83.98;97477.34;5095228;28;20401;-64
2022/11/24 05:48:55;;;;;;;;;;;;;;;7.11;83.55;97474.84;5086160;28;19924;-63
2022/11/24 05:51:23;;;;;;;;;;;;;;;7.01;84.06;97470.44;5082040;28;19938;-64
2022/11/24 05:53:52;;;;;;;;;;;;;;;6.96;84.16;97475.94;5086616;28;19924;-65
2022/11/24 05:56:45;;;;;;;;;;;;;;;6.84;84.56;97479.13;5089625;28;19986;-64
2022/11/24 05:59:38;;;;;;;;;;;;;;;6.79;84.62;97471.91;5081011;28;19928;-64
2022/11/24 06:02:08;;;;;;;;;;;;;;;6.76;84.55;97483.28;5090763;28;19924;-64
2022/11/24 06:04:36;;;;;;;;;;;;;;;6.76;84.28;97482.47;5093780;28;19970;-63
2022/11/24 06:07:06;;;;;;;;;;;;;;;6.70;84.46;97489.06;5098130;28;19969;-64
2022/11/24 06:09:59;;;;;;;;;;;;;;;6.64;84.60;97482.16;5086878;28;20009;-65
2022/11/24 06:12:52;;;;;;;;;;;;;;;6.64;84.44;97487.56;5099804;28;19928;-63
2022/11/24 06:15:22;;;;;;;;;;;;;;;6.61;84.72;97490.88;5089467;28;19924;-63
2022/11/24 06:17:55;;;;;;;;;;;;;;;6.59;84.77;97495.75;5081004;28;19931;-64
2022/11/24 06:20:24;;;;;;;;;;;;;;;6.57;84.77;97496.84;5087103;28;20278;-64
2022/11/24 06:22:58;;;;;;;;;;;;;;;6.54;84.66;97496.63;5082870;28;20222;-63
2022/11/24 06:25:27;;;;;;;;;;;;;;;6.52;84.67;97496.94;5077579;28;19925;-64
2022/11/24 06:28:20;;;;;;;;;;;;;;;6.44;84.89;97504.88;5077384;28;20399;-64
2022/11/24 06:30:49;;;;;;;;;;;;;;;6.47;84.83;97509.69;5077592;28;19924;-63
2022/11/24 06:33:42;;;;;;;;;;;;;;;6.45;84.99;97506.50;5086866;28;19924;-64
2022/11/24 06:36:13;;;;;;;;;;;;;;;6.46;84.84;97505.41;5089872;28;19963;-66
2022/11/24 06:41:39;;;;;;;;;;;;;;;6.45;84.88;97509.22;5088346;28;19931;-64
2022/11/24 06:44:07;;;;;;;;;;;;;;;6.46;84.92;97508.91;5080622;28;19932;-64
2022/11/24 06:46:35;;;;;;;;;;;;;;;6.47;84.86;97510.50;5087211;28;20044;-66
2022/11/24 06:49:03;;;;;;;;;;;;;;;6.51;84.85;97508.81;5079417;28;19932;-66
2022/11/24 06:51:33;;;;;;;;;;;;;;;6.59;84.37;97518.13;5083277;28;20384;-66
2022/11/24 06:54:02;;;;;;;;;;;;;;;6.61;84.26;97520.56;5083779;28;19964;-66
2022/11/24 06:56:34;;;;;;;;;;;;;;;6.70;83.93;97522.25;5086176;28;19931;-66
2022/11/24 06:59:05;;;;;;;;;;;;;;;6.74;83.67;97520.59;5088228;28;19942;-66
2022/11/24 07:01:59;;;;;;;;;;;;;;;6.78;83.60;97520.81;5085019;28;19934;-66
2022/11/24 07:04:27;;;;;;;;;;;;;;;6.87;82.88;97518.22;5084733;28;19935;-66
2022/11/24 07:07:02;;;;;;;;;;;;;;;6.94;83.22;97518.66;5090526;28;19955;-66
2022/11/24 07:09:30;;;;;;;;;;;;;;;6.99;82.42;97523.97;5082888;28;19970;-66
2022/11/24 07:11:59;;;;;;;;;;;;;;;7.00;82.43;97531.75;5090560;28;20389;-66
2022/11/24 07:14:26;;;;;;;;;;;;;;;7.03;81.63;97533.03;5083818;28;19924;-65
2022/11/24 07:16:55;;;;;;;;;;;;;;;7.00;82.14;97539.06;5093558;28;19966;-66
2022/11/24 07:19:24;;;;;;;;;;;;;;;7.02;81.83;97544.94;5089362;28;19928;-66
2022/11/24 07:21:52;;;;;;;;;;;;;;;7.12;81.12;97546.69;5084340;28;19963;-67
2022/11/24 07:24:22;;;;;;;;;;;;;;;7.10;81.61;97546.97;5081268;28;19924;-66
2022/11/24 07:26:53;;;;;;;;;;;;;;;7.12;81.63;97547.47;5086636;28;19924;-66
2022/11/24 07:29:22;;;;;;;;;;;;;;;7.07;81.32;97551.06;5091630;28;19947;-66
2022/11/24 07:31:53;;;;;;;;;;;;;;;7.01;81.39;97548.75;5082509;28;20255;-66
2022/11/24 07:34:23;;;;;;;;;;;;;;;6.94;81.36;97551.06;5087129;28;20474;-66
2022/11/24 07:36:53;;;;;;;;;;;;;;;6.87;81.78;97554.13;5095314;28;19924;-66
2022/11/24 07:39:23;;;;;;;;;;;;;;;6.82;82.15;97554.22;5082492;28;19934;-66
2022/11/24 07:41:52;;;;;;;;;;;;;;;6.81;82.35;97555.28;5078306;28;19931;-66
2022/11/24 07:44:20;;;;;;;;;;;;;;;6.79;82.10;97555.59;5088072;28;19924;-66
2022/11/24 07:46:51;;;;;;;;;;;;;;;6.83;81.92;97566.63;5081265;28;19925;-66
2022/11/24 07:49:20;;;;;;;;;;;;;;;6.83;81.94;97564.72;5080869;28;20015;-66
2022/11/24 07:51:49;;;;;;;;;;;;;;;6.87;82.19;97562.25;5086469;28;19928;-66
2022/11/24 07:54:17;;;;;;;;;;;;;;;6.88;82.14;97565.75;5091414;28;19930;-66
2022/11/24 07:56:48;;;;;;;;;;;;;;;6.95;81.94;97563.44;5088471;28;20437;-66
2022/11/24 08:02:13;;;;;;;;;;;;;;;7.08;81.06;97568.91;5088591;28;19931;-66
2022/11/24 08:04:41;;;;;;;;;;;;;;;7.17;81.36;97570.91;5090179;28;20334;-66
2022/11/24 08:10:02;;;;;;;;;;;;;;;7.40;80.30;97575.34;5082992;28;20335;-66
2022/11/24 08:12:32;;;;;;;;;;;;;;;7.47;79.76;97574.97;5089880;28;19969;-66
2022/11/24 08:15:01;;;;;;;;;;;;;;;7.59;79.76;97581.47;5087410;28;19924;-66
2022/11/24 08:17:32;;;;;;;;;;;;;;;7.63;78.94;97576.28;5073183;28;19979;-66
2022/11/24 08:20:00;;;;;;;;;;;;;;;7.69;79.20;97576.97;5085454;28;19924;-66
2022/11/24 08:22:30;;;;;;;;;;;;;;;7.74;78.55;97580.38;5081467;28;20019;-66
2022/11/24 08:24:58;;;;;;;;;;;;;;;7.83;78.49;97577.78;5077384;28;19928;-66
2022/11/24 08:27:30;;;;;;;;;;;;;;;7.88;78.12;97572.25;5088512;28;19924;-66
2022/11/24 08:30:00;;;;;;;;;;;;;;;7.95;77.85;97579.97;5082732;28;19931;-66
2022/11/24 08:32:32;;;;;;;;;;;;;;;8.00;77.80;97572.56;5078603;28;19925;-66
2022/11/24 08:35:01;;;;;;;;;;;;;;;8.07;76.79;97564.81;5088772;28;19924;-66
2022/11/24 08:37:41;;;;;;;;;;;;;;;8.06;77.50;97565.94;5096519;28;20742;-66
2022/11/24 08:40:10;;;;;;;;;;;;;;;8.08;76.95;97569.13;5080109;28;19934;-65
2022/11/24 08:42:39;;;;;;;;;;;;;;;8.00;76.97;97566.34;5086974;28;19924;-66
2022/11/24 08:45:10;;;;;;;;;;;;;;;7.99;77.42;97570.97;5083600;28;19924;-66
2022/11/24 08:47:51;;;;;;;;;;;;;;;7.91;77.55;97574.34;5087796;28;19971;-66
2022/11/24 08:50:46;;;;;;;;;;;;;;;8.01;76.96;97581.47;5078209;28;20268;-66
2022/11/24 08:53:15;;;;;;;;;;;;;;;8.00;77.02;97577.16;5085401;28;19925;-66
2022/11/24 08:55:43;;;;;;;;;;;;;;;8.01;76.75;97578.75;5095875;28;20327;-66
2022/11/24 08:58:12;;;;;;;;;;;;;;;8.00;77.06;97572.56;5080895;28;19947;-66
2022/11/24 09:00:41;;;;;;;;;;;;;;;8.12;77.11;97577.44;5086227;28;20293;-66
2022/11/24 09:03:10;;;;;;;;;;;;;;;8.12;76.65;97580.16;5084148;28;19924;-66
2022/11/24 09:05:39;;;;;;;;;;;;;;;8.17;76.53;97582.75;5085998;28;19938;-68
2022/11/24 09:08:23;;;;;;;;;;;;;;;8.15;76.72;97579.56;5082016;28;20339;-66
2022/11/24 09:10:52;;;;;;;;;;;;;;;8.21;75.96;97586.44;5086257;28;19938;-66
2022/11/24 09:13:44;;;;;;;;;;;;;;;8.31;75.65;97591.66;5081582;28;19931;-66
2022/11/24 09:16:15;;;;;;;;;;;;;;;8.21;76.15;97599.97;5077064;28;19930;-66
2022/11/24 09:18:44;;;;;;;;;;;;;;;8.22;76.27;97598.88;5085126;28;20452;-66
2022/11/24 09:21:13;;;;;;;;;;;;;;;8.25;75.66;97600.97;5087603;28;19928;-66
2022/11/24 09:23:42;;;;;;;;;;;;;;;8.38;75.26;97600.19;5095453;28;19935;-66
2022/11/24 09:26:11;;;;;;;;;;;;;;;8.42;74.99;97605.78;5078170;28;19932;-66
2022/11/24 09:28:39;;;;;;;;;;;;;;;8.40;75.06;97616.91;5079656;28;19931;-66
2022/11/24 09:31:09;;;;;;;;;;;;;;;8.37;75.54;97609.41;5083729;28;20370;-66
2022/11/24 09:33:39;;;;;;;;;;;;;;;8.40;75.95;97619.59;5077785;28;19938;-65
2022/11/24 09:36:08;;;;;;;;;;;;;;;8.42;75.27;97622.03;5085898;28;19962;-66
2022/11/24 09:38:37;;;;;;;;;;;;;;;8.47;74.80;97618.38;5089076;28;20544;-66
2022/11/24 09:41:39;;;;;;;;;;;;;;;8.38;74.88;97611.00;5078728;28;20399;-66
2022/11/24 09:44:08;;;;;;;;;;;;;;;8.23;75.92;97614.00;5002276;28;19988;-66
2022/11/24 09:46:40;;;;;;;;;;;;;;;8.22;76.54;97625.13;5011838;28;20330;-65
2022/11/24 09:49:11;;;;;;;;;;;;;;;8.26;76.26;97615.31;4988872;28;19953;-66
2022/11/24 09:51:40;;;;;;;;;;;;;;;8.25;76.76;97619.91;4987365;28;19941;-66
2022/11/24 09:54:10;;;;;;;;;;;;;;;8.22;76.58;97617.81;5010652;28;19925;-65
2022/11/24 09:56:40;;;;;;;;;;;;;;;8.24;76.18;97628.31;5008282;28;19925;-65
2022/11/24 09:59:11;;;;;;;;;;;;;;;8.24;76.08;97637.25;4985224;28;19929;-66
2022/11/24 10:01:40;;;;;;;;;;;;;;;8.22;76.53;97623.22;5025632;28;19960;-66
2022/11/24 10:07:06;;;;;;;;;;;;;;;8.30;76.79;97636.03;5000946;28;20403;-66
2022/11/24 10:10:01;;;;;;;;;;;;;;;8.28;76.76;97630.13;5019365;28;19948;-65
2022/11/24 10:12:33;;;;;;;;;;;;;;;8.25;77.54;97632.63;5003836;28;19934;-66
2022/11/24 10:15:27;;;;;;;;;;;;;;;8.26;77.32;97623.44;5041990;28;20365;-66
2022/11/24 10:18:02;;;;;;;;;;;;;;;8.20;77.63;97636.25;5076589;28;20296;-66
2022/11/24 10:20:40;;;;;;;;;;;;;;;8.17;76.78;97636.88;5090576;28;19960;-66
2022/11/24 10:23:14;;;;;;;;;;;;;;;8.16;76.87;97637.97;5094020;28;19928;-66
2022/11/24 10:25:42;;;;;;;;;;;;;;;8.10;77.46;97641.88;5086305;28;19968;-66
2022/11/24 10:28:12;;;;;;;;;;;;;;;8.09;77.36;97651.09;5089883;28;19997;-66
2022/11/24 10:30:41;;;;;;;;;;;;;;;8.02;77.16;97648.78;5088787;28;19979;-65
2022/11/24 10:33:34;;;;;;;;;;;;;;;8.02;77.90;97640.66;5076974;28;20021;-65
2022/11/24 10:36:07;;;;;;;;;;;;;;;7.93;78.16;97652.50;5075142;28;19938;-69
2022/11/24 10:38:36;;;;;;;;;;;;;;;7.88;78.74;97640.69;5094958;28;19924;-65
2022/11/24 10:41:05;;;;;;;;;;;;;;;7.83;78.54;97648.91;5080121;28;20396;-65
2022/11/24 10:43:34;;;;;;;;;;;;;;;7.81;79.74;97645.66;5080667;28;20288;-65
2022/11/24 10:46:09;;;;;;;;;;;;;;;7.85;79.28;97649.38;5091028;28;19924;-65
2022/11/24 10:48:41;;;;;;;;;;;;;;;7.78;79.59;97645.50;5089560;28;19928;-65
2022/11/24 10:51:20;;;;;;;;;;;;;;;7.72;80.22;97655.56;5091174;28;19928;-64
2022/11/24 10:53:49;;;;;;;;;;;;;;;7.69;80.03;97645.38;5085203;28;20019;-64
2022/11/24 10:56:18;;;;;;;;;;;;;;;7.62;80.54;97647.66;5093852;28;19971;-65
2022/11/24 10:58:47;;;;;;;;;;;;;;;7.63;80.64;97640.38;5090384;28;19993;-65
2022/11/24 11:01:39;;;;;;;;;;;;;;;7.63;81.03;97649.28;5088607;28;19994;-65
2022/11/24 11:04:12;;;;;;;;;;;;;;;7.69;80.49;97639.97;5081930;28;19986;-65
2022/11/24 11:06:41;;;;;;;;;;;;;;;7.65;81.09;97641.66;5093699;28;19924;-65
2022/11/24 11:09:18;;;;;;;;;;;;;;;7.66;81.08;97645.94;5082788;28;19990;-65
2022/11/24 11:11:54;;;;;;;;;;;;;;;7.73;81.33;97648.28;5090689;28;20258;-65
2022/11/24 11:14:34;;;;;;;;;;;;;;;7.77;81.24;97651.97;5087076;28;19967;-65
2022/11/24 11:17:20;;;;;;;;;;;;;;;7.82;81.71;97649.19;5085528;28;19925;-65
2022/11/24 11:19:50;;;;;;;;;;;;;;;7.87;81.44;97660.69;5081481;28;19924;-65
2022/11/24 11:22:27;;;;;;;;;;;;;;;7.85;81.99;97657.50;5084405;28;19929;-65
2022/11/24 11:25:05;;;;;;;;;;;;;;;7.94;82.07;97654.91;5090041;28;19925;-65
2022/11/24 11:27:33;;;;;;;;;;;;;;;8.07;81.48;97664.13;5084512;28;19928;-65
2022/11/24 11:30:20;;;;;;;;;;;;;;;8.08;81.36;97660.31;5092077;28;19947;-65
2022/11/24 11:36:56;;;;;;;;;;;;;;;8.21;81.79;97653.31;5088966;28;19969;-64
2022/11/24 11:39:27;;;;;;;;;;;;;;;8.31;80.74;97647.66;5084854;28;19931;-65
2022/11/24 11:42:01;;;;;;;;;;;;;;;8.37;80.74;97655.41;5090470;28;19924;-65
2022/11/24 11:44:55;;;;;;;;;;;;;;;8.43;79.69;97660.72;5085927;28;19931;-65
2022/11/24 11:47:24;;;;;;;;;;;;;;;8.45;79.96;97664.72;5085287;28;19924;-65
2022/11/24 11:50:17;;;;;;;;;;;;;;;8.48;78.65;97660.63;5092058;28;20441;-65
2022/11/24 11:53:00;;;;;;;;;;;;;;;8.47;78.47;97665.25;5092973;28;19924;-65
2022/11/24 11:55:34;;;;;;;;;;;;;;;8.50;78.71;97671.94;5078626;28;19924;-65
2022/11/24 11:58:06;;;;;;;;;;;;;;;8.48;78.87;97679.56;5084537;28;19982;-65
2022/11/24 12:00:37;;;;;;;;;;;;;;;8.54;79.06;97672.94;5085951;28;19931;-65
2022/11/24 12:03:25;;;;;;;;;;;;;;;8.58;77.92;97673.94;5077087;28;19933;-65
2022/11/24 12:05:56;;;;;;;;;;;;;;;8.57;78.46;97672.31;5084689;28;19924;-65
2022/11/24 12:08:28;;;;;;;;;;;;;;;8.53;78.75;97674.06;5081446;28;19928;-65
2022/11/24 12:11:40;;;;;;;;;;;;;;;8.53;78.36;97666.72;5086071;28;19935;-65
2022/11/24 12:14:11;;;;;;;;;;;;;;;8.47;78.51;97684.19;5082060;28;19928;-65
2022/11/24 12:16:44;;;;;;;;;;;;;;;8.47;78.09;97683.34;5084225;28;19950;-65
2022/11/24 12:19:19;;;;;;;;;;;;;;;8.44;78.44;97692.09;5089343;28;19924;-65
2022/11/24 12:21:50;;;;;;;;;;;;;;;8.40;79.08;97689.19;5082838;28;19928;-65
2022/11/24 12:24:22;;;;;;;;;;;;;;;8.40;78.86;97690.00;5086851;28;19931;-65
2022/11/24 12:26:53;;;;;;;;;;;;;;;8.44;79.13;97689.41;5092246;28;20380;-65
2022/11/24 12:29:30;;;;;;;;;;;;;;;8.47;78.79;97695.03;5089595;28;19986;-65
2022/11/24 12:31:59;;;;;;;;;;;;;;;8.53;79.29;97690.28;5087107;28;19931;-65
2022/11/24 12:37:30;;;;;;;;;;;;;;;8.64;78.38;97687.06;5106130;27;19924;-65
2022/11/24 12:40:02;;;;;;;;;;;;;;;8.68;76.89;97689.16;5085753;28;19924;-65
2022/11/24 12:42:35;;;;;;;;;;;;;;;8.75;76.57;97693.06;5090091;28;19924;-65
2022/11/24 12:45:14;;;;;;;;;;;;;;;8.73;76.21;97699.88;5084704;28;19963;-65
2022/11/24 12:47:49;;;;;;;;;;;;;;;8.76;76.08;97696.56;5082879;28;19970;-66
2022/11/24 12:50:18;;;;;;;;;;;;;;;8.69;76.55;97694.28;5087519;28;19968;-65
2022/11/24 12:52:48;;;;;;;;;;;;;;;8.72;76.29;97695.56;5091693;28;19932;-65
2022/11/24 12:55:21;;;;;;;;;;;;;;;8.70;76.14;97709.41;5082542;28;19924;-65
2022/11/24 12:57:54;;;;;;;;;;;;;;;8.74;76.11;97717.75;5088237;28;20038;-65
2022/11/24 13:00:23;;;;;;;;;;;;;;;8.76;76.08;97705.50;5083186;28;19947;-65
2022/11/24 13:02:56;;;;;;;;;;;;;;;8.79;75.07;97710.31;5089494;28;19924;-65
2022/11/24 13:05:25;;;;;;;;;;;;;;;8.85;74.61;97706.38;5086638;28;20422;-65
2022/11/24 13:07:56;;;;;;;;;;;;;;;8.81;74.70;97710.78;5087357;28;20380;-65
2022/11/24 13:10:32;;;;;;;;;;;;;;;8.84;74.57;97710.19;5091334;28;19932;-65
2022/11/24 13:13:23;;;;;;;;;;;;;;;8.89;73.35;97709.25;5071320;28;20330;-65
2022/11/24 13:16:02;;;;;;;;;;;;;;;8.84;72.39;97712.09;5088809;28;19925;-65
2022/11/24 13:18:54;;;;;;;;;;;;;;;8.93;72.20;97719.19;5080937;28;19935;-65
2022/11/24 13:21:34;;;;;;;;;;;;;;;8.99;70.93;97719.06;5090650;28;19924;-65
2022/11/24 13:27:18;;;;;;;;;;;;;;;9.04;70.15;97713.53;5080132;28;20261;-66
2022/11/24 13:29:48;;;;;;;;;;;;;;;9.00;70.68;97728.81;5087624;28;19935;-66
2022/11/24 13:32:31;;;;;;;;;;;;;;;8.89;70.69;97723.63;5091452;28;19974;-67
2022/11/24 13:35:03;;;;;;;;;;;;;;;8.80;70.76;97733.59;5060563;28;19935;-66
2022/11/24 13:37:51;;;;;;;;;;;;;;;8.81;71.57;97737.88;5095835;28;19930;-66
2022/11/24 13:40:37;;;;;;;;;;;;;;;8.88;70.34;97730.13;5088145;28;20306;-66
2022/11/24 13:43:22;;;;;;;;;;;;;;;8.88;70.79;97746.38;5085860;28;20396;-66
2022/11/24 13:45:52;;;;;;;;;;;;;;;8.89;71.00;97739.88;5091273;28;19977;-66
2022/11/24 13:48:46;;;;;;;;;;;;;;;8.91;70.71;97737.66;5089999;28;19924;-69
2022/11/24 13:51:17;;;;;;;;;;;;;;;8.92;70.68;97750.09;5075906;28;19928;-66
2022/11/24 13:53:46;;;;;;;;;;;;;;;8.90;70.96;97751.53;5090938;28;20377;-66
2022/11/24 13:56:21;;;;;;;;;;;;;;;8.93;71.13;97746.28;5085034;28;19924;-65